createdAt,value
2019-05-25T00:00:22.195Z,96508.02
2019-05-25T00:04:24.092Z,96507.31
2019-05-25T00:08:26.021Z,96503.97
2019-05-25T00:12:28.154Z,96499.50
2019-05-25T00:16:30.453Z,96495.92
2019-05-25T00:20:32.423Z,96486.56
2019-05-25T00:24:34.415Z,96495.52
2019-05-25T00:28:36.396Z,96487.45
2019-05-25T00:32:38.307Z,96493.75
2019-05-25T00:36:42.953Z,96494.48
2019-05-25T00:40:44.871Z,96491.48
2019-05-25T00:44:46.795Z,96494.62
2019-05-25T00:48:48.700Z,96492.95
2019-05-25T00:52:50.692Z,96494.75
2019-05-25T00:56:52.598Z,96493.13
2019-05-25T01:00:54.546Z,96490.43
2019-05-25T01:04:56.446Z,96493.00
2019-05-25T01:08:58.362Z,96495.83
2019-05-25T01:13:00.278Z,96495.48
2019-05-25T01:17:03.554Z,96487.95
2019-05-25T01:21:05.625Z,96492.87
2019-05-25T01:25:08.958Z,96488.80
2019-05-25T01:29:10.891Z,96490.81
2019-05-25T01:33:12.944Z,96446.80
2019-05-25T01:37:14.863Z,96490.19
2019-05-25T01:41:17.752Z,96493.16
2019-05-25T01:45:19.722Z,96502.03
2019-05-25T01:49:21.645Z,96495.02
2019-05-25T01:53:23.561Z,96492.05
2019-05-25T01:57:25.493Z,96492.86
2019-05-25T02:01:27.398Z,96493.80
2019-05-25T02:05:29.342Z,96497.08
2019-05-25T02:09:32.086Z,96496.14
2019-05-25T02:13:34.069Z,96497.36
2019-05-25T02:17:35.936Z,96504.94
2019-05-25T02:21:39.628Z,96499.91
2019-05-25T02:25:41.593Z,96490.47
2019-05-25T02:29:43.507Z,96491.94
2019-05-25T02:33:45.405Z,96489.23
2019-05-25T02:37:47.326Z,96495.77
2019-05-25T02:41:49.215Z,96489.23
2019-05-25T02:45:51.291Z,96493.94
2019-05-25T02:49:53.238Z,96500.83
2019-05-25T02:53:55.131Z,96497.87
2019-05-25T02:57:57.093Z,96500.56
2019-05-25T03:01:59.587Z,96501.53
2019-05-25T03:06:04.967Z,96494.54
2019-05-25T03:10:07.817Z,96496.89
2019-05-25T03:14:09.783Z,96501.09
2019-05-25T03:18:12.475Z,96485.70
2019-05-25T03:22:14.374Z,96495.63
2019-05-25T03:26:16.265Z,96492.99
2019-05-25T03:30:25.572Z,96497.25
2019-05-25T03:34:27.491Z,96497.25
2019-05-25T03:38:29.375Z,96499.14
2019-05-25T03:42:31.279Z,96495.75
2019-05-25T03:46:33.163Z,96499.41
2019-05-25T03:50:35.159Z,96496.05
2019-05-25T03:54:37.049Z,96498.00
2019-05-25T03:58:38.944Z,96499.45
2019-05-25T04:02:40.881Z,96501.30
2019-05-25T04:06:42.780Z,96490.72
2019-05-25T04:10:44.695Z,96495.69
2019-05-25T04:14:46.591Z,96495.93
2019-05-25T04:18:48.855Z,96492.23
2019-05-25T04:22:50.762Z,96494.44
2019-05-25T04:26:52.644Z,96499.43
2019-05-25T04:30:54.554Z,96507.12
2019-05-25T04:34:56.454Z,96507.47
2019-05-25T04:38:58.346Z,96508.98
2019-05-25T04:43:00.257Z,96515.00
2019-05-25T04:47:03.286Z,96519.40
2019-05-25T04:51:05.182Z,96514.58
2019-05-25T04:59:15.161Z,96516.79
2019-05-25T05:03:17.128Z,96520.97
2019-05-25T05:07:19.051Z,96523.75
2019-05-25T05:11:21.050Z,96525.19
2019-05-25T05:15:23.040Z,96519.72
2019-05-25T05:19:24.959Z,96525.82
2019-05-25T05:23:26.863Z,96519.39
2019-05-25T05:27:29.058Z,96529.97
2019-05-25T05:31:30.976Z,96526.05
2019-05-25T05:35:38.595Z,96522.53
2019-05-25T05:39:38.483Z,96527.67
2019-05-25T05:43:43.979Z,96526.56
2019-05-25T05:47:48.326Z,96526.71
2019-05-25T05:51:52.649Z,96534.05
2019-05-25T05:55:54.570Z,96534.53
2019-05-25T05:59:56.487Z,96533.94
2019-05-25T06:03:58.402Z,96532.54
2019-05-25T06:08:00.318Z,96537.47
2019-05-25T06:12:03.496Z,96526.95
2019-05-25T06:16:05.475Z,96524.17
2019-05-25T06:20:09.497Z,96523.73
2019-05-25T06:24:12.639Z,96521.41
2019-05-25T06:28:18.215Z,96521.71
2019-05-25T06:32:18.289Z,96532.37
2019-05-25T06:36:20.233Z,96524.91
2019-05-25T06:40:22.559Z,96525.41
2019-05-25T06:44:25.503Z,96539.26
2019-05-25T06:48:27.422Z,96529.88
2019-05-25T06:52:29.396Z,96536.48
2019-05-25T06:56:31.309Z,96530.97
2019-05-25T07:00:34.168Z,96533.19
2019-05-25T07:04:36.074Z,96485.70
2019-05-25T07:08:38.072Z,96535.91
2019-05-25T07:12:40.004Z,96535.65
2019-05-25T07:16:44.719Z,96535.70
2019-05-25T07:20:46.624Z,96545.64
2019-05-25T07:24:48.551Z,96545.33
2019-05-25T07:28:50.487Z,96540.52
2019-05-25T07:32:52.579Z,96543.72
2019-05-25T07:36:54.475Z,96547.19
2019-05-25T07:40:56.411Z,96551.38
2019-05-25T07:44:58.385Z,96557.74
2019-05-25T07:49:00.320Z,96541.03
2019-05-25T07:53:02.216Z,96544.36
2019-05-25T07:57:07.128Z,96538.08
2019-05-25T08:01:09.032Z,96540.84
2019-05-25T08:05:11.237Z,96537.57
2019-05-25T08:09:13.135Z,96536.45
2019-05-25T08:13:15.049Z,96549.80
2019-05-25T08:17:16.989Z,96545.38
2019-05-25T08:21:18.897Z,96546.42
2019-05-25T08:25:21.101Z,96542.13
2019-05-25T08:29:23.013Z,96539.92
2019-05-25T08:33:24.925Z,96539.13
2019-05-25T08:37:26.834Z,96538.77
2019-05-25T08:41:28.742Z,96535.95
2019-05-25T08:45:30.732Z,96549.34
2019-05-25T08:49:32.635Z,96537.99
2019-05-25T08:53:41.526Z,96534.30
2019-05-25T08:57:38.163Z,96534.09
2019-05-25T09:01:40.080Z,96535.02
2019-05-25T09:05:42.143Z,96530.70
2019-05-25T09:09:44.051Z,96537.51
2019-05-25T09:13:46.009Z,96542.75
2019-05-25T09:17:47.908Z,96540.48
2019-05-25T09:22:02.205Z,96545.91
2019-05-25T09:25:53.502Z,96547.33
2019-05-25T09:29:55.420Z,96554.52
2019-05-25T09:33:57.321Z,96546.60
2019-05-25T09:37:59.233Z,96549.72
2019-05-25T09:42:02.780Z,96549.91
2019-05-25T09:46:05.967Z,96550.29
2019-05-25T09:50:08.374Z,96548.17
2019-05-25T09:54:10.366Z,96539.38
2019-05-25T09:58:12.866Z,96539.20
2019-05-25T10:02:14.774Z,96530.55
2019-05-25T10:06:17.675Z,96533.05
2019-05-25T10:10:20.061Z,96530.14
2019-05-25T10:14:21.984Z,96540.07
2019-05-25T10:18:23.916Z,96533.56
2019-05-25T10:22:25.868Z,96535.95
2019-05-25T10:26:27.790Z,96542.09
2019-05-25T10:30:29.749Z,96542.77
2019-05-25T10:34:31.653Z,96539.61
2019-05-25T10:38:33.844Z,96525.09
2019-05-25T10:42:35.829Z,96523.92
2019-05-25T10:46:37.758Z,96516.99
2019-05-25T10:50:39.699Z,96513.16
2019-05-25T10:54:41.597Z,96513.48
2019-05-25T10:58:43.532Z,96509.69
2019-05-25T11:02:45.424Z,96516.44
2019-05-25T11:06:47.350Z,96507.08
2019-05-25T11:10:49.261Z,96506.45
2019-05-25T11:14:51.196Z,96508.09
2019-05-25T11:18:53.236Z,96507.89
2019-05-25T11:22:55.216Z,96499.39
2019-05-25T11:26:59.647Z,96495.63
2019-05-25T11:31:00.813Z,96485.62
2019-05-25T11:35:02.724Z,96483.89
2019-05-25T11:39:07.750Z,96492.27
2019-05-25T11:43:09.681Z,96488.93
2019-05-25T11:47:12.850Z,96482.20
2019-05-25T11:51:14.752Z,96478.97
2019-05-25T11:55:17.952Z,96473.53
2019-05-25T11:59:19.838Z,96489.56
2019-05-25T12:03:21.751Z,96477.30
2019-05-25T12:07:24.641Z,96487.30
2019-05-25T12:11:26.536Z,96496.07
2019-05-25T12:15:28.449Z,96492.25
2019-05-25T12:19:30.376Z,96496.39
2019-05-25T12:23:33.617Z,96498.28
2019-05-25T12:27:35.526Z,96494.47
2019-05-25T12:31:37.447Z,96492.28
2019-05-25T12:35:40.957Z,96480.59
2019-05-25T12:39:42.855Z,96497.46
2019-05-25T12:43:44.777Z,96502.32
2019-05-25T12:47:46.677Z,96491.66
2019-05-25T12:51:48.592Z,96481.66
2019-05-25T12:55:50.512Z,96475.52
2019-05-25T12:59:52.424Z,96480.22
2019-05-25T13:03:54.327Z,96475.39
2019-05-25T13:07:56.241Z,96469.96
2019-05-25T13:11:58.230Z,96472.68
2019-05-25T13:16:00.165Z,96464.02
2019-05-25T13:20:02.900Z,96467.66
2019-05-25T13:24:04.869Z,96457.52
2019-05-25T13:28:07.306Z,96455.05
2019-05-25T13:32:09.223Z,96450.11
2019-05-25T13:36:11.142Z,96457.56
2019-05-25T13:40:13.484Z,96472.15
2019-05-25T13:44:15.413Z,96458.97
2019-05-25T13:48:17.311Z,96454.64
2019-05-25T13:52:19.315Z,96454.49
2019-05-25T13:56:21.245Z,96457.56
2019-05-25T14:00:23.218Z,96471.53
2019-05-25T14:04:25.132Z,96462.62
2019-05-25T14:08:27.057Z,96468.00
2019-05-25T14:12:29.050Z,96468.61
2019-05-25T14:16:30.968Z,96462.97
2019-05-25T14:20:32.869Z,96457.48
2019-05-25T14:24:35.638Z,96460.33
2019-05-25T14:28:39.111Z,96463.98
2019-05-25T14:32:41.024Z,96456.94
2019-05-25T14:36:42.943Z,96457.53
2019-05-25T14:40:44.908Z,96451.73
2019-05-25T14:44:46.892Z,96457.17
2019-05-25T14:48:48.808Z,96458.66
2019-05-25T14:52:50.823Z,96464.53
2019-05-25T14:56:52.823Z,96463.17
2019-05-25T15:00:54.843Z,96475.41
2019-05-25T15:04:56.754Z,96493.07
2019-05-25T15:08:58.654Z,96496.92
2019-05-25T15:13:00.612Z,96498.50
2019-05-25T15:17:02.522Z,96508.77
2019-05-25T15:21:04.424Z,96498.67
2019-05-25T15:25:12.208Z,96496.22
2019-05-25T15:29:14.308Z,96489.97
2019-05-25T15:33:16.277Z,96498.13
2019-05-25T15:37:18.198Z,96505.61
2019-05-25T15:41:20.161Z,96518.55
2019-05-25T15:45:23.027Z,96530.86
2019-05-25T15:49:32.961Z,96529.88
2019-05-25T15:53:29.254Z,96544.58
2019-05-25T15:57:31.164Z,96533.87
2019-05-25T16:01:33.687Z,96527.88
2019-05-25T16:05:35.593Z,96545.57
2019-05-25T16:09:37.514Z,96545.69
2019-05-25T16:13:39.446Z,96546.58
2019-05-25T16:17:41.615Z,96550.63
2019-05-25T16:21:51.135Z,96554.55
2019-05-25T16:25:53.030Z,96557.28
2019-05-25T16:29:54.947Z,96565.72
2019-05-25T16:33:56.869Z,96565.52
2019-05-25T16:37:58.867Z,96568.29
2019-05-25T16:42:01.671Z,96563.78
2019-05-25T16:46:03.565Z,96565.10
2019-05-25T16:50:30.492Z,96569.42
2019-05-25T16:54:32.406Z,96566.73
2019-05-25T16:58:34.391Z,96569.69
2019-05-25T17:02:37.342Z,96583.09
2019-05-25T17:06:39.247Z,96595.00
2019-05-25T17:10:41.174Z,96595.08
2019-05-25T17:14:43.090Z,96593.42
2019-05-25T17:18:46.142Z,96598.02
2019-05-25T17:22:48.210Z,96594.06
2019-05-25T17:26:50.132Z,96604.30
2019-05-25T17:30:53.033Z,96601.09
2019-05-25T17:34:54.941Z,96602.01
2019-05-25T17:38:56.843Z,96602.19
2019-05-25T17:42:58.757Z,96594.75
2019-05-25T17:47:00.674Z,96602.30
2019-05-25T17:51:02.575Z,96601.23
2019-05-25T17:55:07.009Z,96599.63
2019-05-25T17:59:08.922Z,96606.30
2019-05-25T18:03:11.126Z,96601.49
2019-05-25T18:07:13.303Z,96599.63
2019-05-25T18:11:15.377Z,96599.90
2019-05-25T18:15:17.558Z,96596.67
2019-05-25T18:19:19.460Z,96596.95
2019-05-25T18:23:22.537Z,96598.28
2019-05-25T18:27:24.450Z,96598.29
2019-05-25T18:31:26.371Z,96598.54
2019-05-25T18:35:28.289Z,96588.41
2019-05-25T18:39:30.231Z,96582.27
2019-05-25T18:43:32.150Z,96583.08
2019-05-25T18:47:34.070Z,96582.27
2019-05-25T18:51:35.957Z,96582.55
2019-05-25T18:55:37.879Z,96579.61
2019-05-25T18:59:39.792Z,96588.66
2019-05-25T19:03:41.714Z,96580.12
2019-05-25T19:07:43.645Z,96584.11
2019-05-25T19:11:45.560Z,96582.75
2019-05-25T19:15:47.469Z,96582.48
2019-05-25T19:19:49.385Z,96590.21
2019-05-25T19:23:51.318Z,96596.91
2019-05-25T19:27:53.244Z,96596.91
2019-05-25T19:31:55.140Z,96598.77
2019-05-25T19:35:57.263Z,96610.52
2019-05-25T19:39:59.191Z,96606.52
2019-05-25T19:44:01.122Z,96616.11
2019-05-25T19:48:03.041Z,96619.30
2019-05-25T19:52:05.708Z,96627.75
2019-05-25T19:56:07.996Z,96629.30
2019-05-25T20:00:11.739Z,96635.09
2019-05-25T20:04:13.639Z,96640.41
2019-05-25T20:08:15.567Z,96637.83
2019-05-25T20:12:17.464Z,96647.09
2019-05-25T20:16:19.398Z,96641.75
2019-05-25T20:20:21.722Z,96642.23
2019-05-25T20:24:23.676Z,96651.80
2019-05-25T20:28:25.601Z,96653.70
2019-05-25T20:32:27.512Z,96654.44
2019-05-25T20:36:29.422Z,96653.84
2019-05-25T20:40:31.328Z,96656.77
2019-05-25T20:44:33.251Z,96658.10
2019-05-25T20:48:35.154Z,96600.58
2019-05-25T20:52:37.100Z,96673.22
2019-05-25T20:56:39.010Z,96672.81
2019-05-25T21:00:41.764Z,96683.27
2019-05-25T21:04:43.727Z,96682.23
2019-05-25T21:08:45.698Z,96683.27
2019-05-25T21:12:48.473Z,96684.19
2019-05-25T21:16:50.846Z,96689.94
2019-05-25T21:20:56.786Z,96688.41
2019-05-25T21:25:05.283Z,96691.30
2019-05-25T21:29:02.341Z,96690.57
2019-05-25T21:33:04.249Z,96688.06
2019-05-25T21:37:06.325Z,96690.03
2019-05-25T21:41:08.256Z,96692.45
2019-05-25T21:45:10.578Z,96699.57
2019-05-25T21:49:13.554Z,96701.69
2019-05-25T21:53:15.489Z,96703.59
2019-05-25T21:57:17.386Z,96711.58
2019-05-25T22:01:19.564Z,96712.97
2019-05-25T22:05:21.992Z,96711.83
2019-05-25T22:09:23.913Z,96713.45
2019-05-25T22:13:28.900Z,96709.53
2019-05-25T22:17:30.445Z,96711.28
2019-05-25T22:21:32.392Z,96704.83
2019-05-25T22:25:34.390Z,96704.72
2019-05-25T22:29:36.329Z,96699.84
2019-05-25T22:33:38.272Z,96705.34
2019-05-25T22:37:40.218Z,96702.50
2019-05-25T22:41:43.216Z,96698.63
2019-05-25T22:45:45.171Z,96703.16
2019-05-25T22:49:47.141Z,96711.67
2019-05-25T22:53:49.130Z,96711.98
2019-05-25T22:57:51.065Z,96715.97
2019-05-25T23:01:53.026Z,96713.56
2019-05-25T23:05:54.952Z,96717.63
2019-05-25T23:09:56.900Z,96716.01
2019-05-25T23:13:58.823Z,96721.02
2019-05-25T23:18:00.770Z,96717.20
2019-05-25T23:22:02.730Z,96716.09
2019-05-25T23:26:04.754Z,96715.88
2019-05-25T23:30:08.905Z,96719.59
2019-05-25T23:34:10.853Z,96721.52
2019-05-25T23:38:13.461Z,96723.95
2019-05-25T23:42:15.383Z,96712.27
2019-05-25T23:46:17.365Z,96698.23
2019-05-25T23:50:19.536Z,96716.95
2019-05-25T23:54:21.471Z,96712.95
2019-05-25T23:58:23.438Z,96711.63
